sensor_id;sensor_type;location;lat;lon;timestamp;temperature;humidity
10662;DHT22;5379;51.034;7.006;2022-12-29T00:00:54;14.10;99.90
10662;DHT22;5379;51.034;7.006;2022-12-29T00:03:21;14.10;99.90
10662;DHT22;5379;51.034;7.006;2022-12-29T00:05:54;14.10;99.90
10662;DHT22;5379;51.034;7.006;2022-12-29T00:08:22;14.10;99.90
10662;DHT22;5379;51.034;7.006;2022-12-29T00:11:05;14.10;99.90
10662;DHT22;5379;51.034;7.006;2022-12-29T00:13:32;14.10;99.90
10662;DHT22;5379;51.034;7.006;2022-12-29T00:16:17;14.10;99.90
10662;DHT22;5379;51.034;7.006;2022-12-29T00:18:44;14.10;99.90
10662;DHT22;5379;51.034;7.006;2022-12-29T00:21:13;14.10;99.90
10662;DHT22;5379;51.034;7.006;2022-12-29T00:24:01;14.10;99.90
10662;DHT22;5379;51.034;7.006;2022-12-29T00:26:49;14.10;99.90
10662;DHT22;5379;51.034;7.006;2022-12-29T00:29:34;14.10;99.90
10662;DHT22;5379;51.034;7.006;2022-12-29T00:32:18;14.10;99.90
10662;DHT22;5379;51.034;7.006;2022-12-29T00:35:02;14.10;99.90
10662;DHT22;5379;51.034;7.006;2022-12-29T00:37:36;14.10;99.90
10662;DHT22;5379;51.034;7.006;2022-12-29T00:40:22;12.50;99.90
10662;DHT22;5379;51.034;7.006;2022-12-29T00:43:07;14.20;99.90
10662;DHT22;5379;51.034;7.006;2022-12-29T00:45:51;14.20;99.90
10662;DHT22;5379;51.034;7.006;2022-12-29T00:48:18;14.20;99.90
10662;DHT22;5379;51.034;7.006;2022-12-29T00:51:05;14.20;99.90
10662;DHT22;5379;51.034;7.006;2022-12-29T00:53:31;14.30;99.90
10662;DHT22;5379;51.034;7.006;2022-12-29T00:56:00;14.30;99.90
10662;DHT22;5379;51.034;7.006;2022-12-29T00:58:28;14.40;99.90
10662;DHT22;5379;51.034;7.006;2022-12-29T01:01:01;14.40;99.90
10662;DHT22;5379;51.034;7.006;2022-12-29T01:03:28;14.40;99.90
10662;DHT22;5379;51.034;7.006;2022-12-29T01:05:56;14.40;99.90
10662;DHT22;5379;51.034;7.006;2022-12-29T01:08:23;14.50;99.90
10662;DHT22;5379;51.034;7.006;2022-12-29T01:10:59;14.50;99.90
10662;DHT22;5379;51.034;7.006;2022-12-29T01:13:25;14.50;99.90
10662;DHT22;5379;51.034;7.006;2022-12-29T01:15:52;14.50;99.90
10662;DHT22;5379;51.034;7.006;2022-12-29T01:18:20;14.50;99.90
10662;DHT22;5379;51.034;7.006;2022-12-29T01:20:47;14.50;99.90
10662;DHT22;5379;51.034;7.006;2022-12-29T01:23:15;14.50;99.90
10662;DHT22;5379;51.034;7.006;2022-12-29T01:25:41;14.60;99.90
10662;DHT22;5379;51.034;7.006;2022-12-29T01:28:10;14.70;99.90
10662;DHT22;5379;51.034;7.006;2022-12-29T05:31:40;15.20;99.90
10662;DHT22;5379;51.034;7.006;2022-12-29T05:34:10;15.30;99.90
10662;DHT22;5379;51.034;7.006;2022-12-29T05:36:37;15.40;99.90
10662;DHT22;5379;51.034;7.006;2022-12-29T05:39:04;15.50;99.90
10662;DHT22;5379;51.034;7.006;2022-12-29T05:41:33;15.70;99.90
10662;DHT22;5379;51.034;7.006;2022-12-29T05:44:00;15.70;99.90
10662;DHT22;5379;51.034;7.006;2022-12-29T05:46:27;15.80;99.90
10662;DHT22;5379;51.034;7.006;2022-12-29T05:48:56;15.90;99.90
10662;DHT22;5379;51.034;7.006;2022-12-29T05:51:23;16.10;99.90
10662;DHT22;5379;51.034;7.006;2022-12-29T05:53:50;16.00;99.90
10662;DHT22;5379;51.034;7.006;2022-12-29T05:56:17;15.80;99.90
10662;DHT22;5379;51.034;7.006;2022-12-29T05:58:44;15.70;99.90
10662;DHT22;5379;51.034;7.006;2022-12-29T06:01:11;15.70;99.90
10662;DHT22;5379;51.034;7.006;2022-12-29T06:03:39;15.60;99.90
10662;DHT22;5379;51.034;7.006;2022-12-29T06:06:07;15.50;99.90
10662;DHT22;5379;51.034;7.006;2022-12-29T06:08:34;15.30;99.90
10662;DHT22;5379;51.034;7.006;2022-12-29T06:11:01;15.30;99.90
10662;DHT22;5379;51.034;7.006;2022-12-29T06:13:28;15.30;99.90
10662;DHT22;5379;51.034;7.006;2022-12-29T06:15:55;15.30;99.90
10662;DHT22;5379;51.034;7.006;2022-12-29T06:18:22;15.50;99.90
10662;DHT22;5379;51.034;7.006;2022-12-29T06:20:49;15.60;99.90
10662;DHT22;5379;51.034;7.006;2022-12-29T06:23:17;15.60;99.90
10662;DHT22;5379;51.034;7.006;2022-12-29T06:25:46;15.90;99.90
10662;DHT22;5379;51.034;7.006;2022-12-29T06:28:13;15.90;99.90
10662;DHT22;5379;51.034;7.006;2022-12-29T06:30:43;16.00;99.90
10662;DHT22;5379;51.034;7.006;2022-12-29T06:33:10;16.10;99.90
10662;DHT22;5379;51.034;7.006;2022-12-29T06:35:37;16.20;99.90
10662;DHT22;5379;51.034;7.006;2022-12-29T06:38:04;16.20;99.90
10662;DHT22;5379;51.034;7.006;2022-12-29T06:40:33;16.00;99.90
10662;DHT22;5379;51.034;7.006;2022-12-29T06:43:00;15.80;99.90
10662;DHT22;5379;51.034;7.006;2022-12-29T06:45:27;15.70;99.90
10662;DHT22;5379;51.034;7.006;2022-12-29T06:47:54;15.70;99.90
10662;DHT22;5379;51.034;7.006;2022-12-29T06:50:21;15.70;99.90
10662;DHT22;5379;51.034;7.006;2022-12-29T06:52:48;15.70;99.90
10662;DHT22;5379;51.034;7.006;2022-12-29T06:55:15;15.70;99.90
10662;DHT22;5379;51.034;7.006;2022-12-29T06:57:43;15.80;99.90
10662;DHT22;5379;51.034;7.006;2022-12-29T07:00:11;15.80;99.90
10662;DHT22;5379;51.034;7.006;2022-12-29T07:02:38;15.80;99.90
10662;DHT22;5379;51.034;7.006;2022-12-29T07:05:05;15.80;99.90
10662;DHT22;5379;51.034;7.006;2022-12-29T07:07:33;15.60;99.90
10662;DHT22;5379;51.034;7.006;2022-12-29T07:10:00;15.70;99.90
10662;DHT22;5379;51.034;7.006;2022-12-29T07:12:27;15.70;99.90
10662;DHT22;5379;51.034;7.006;2022-12-29T07:14:55;15.80;99.90
10662;DHT22;5379;51.034;7.006;2022-12-29T07:17:22;15.90;99.90
10662;DHT22;5379;51.034;7.006;2022-12-29T07:19:49;15.90;99.90
10662;DHT22;5379;51.034;7.006;2022-12-29T07:22:16;16.00;99.90
10662;DHT22;5379;51.034;7.006;2022-12-29T07:24:43;16.20;99.90
10662;DHT22;5379;51.034;7.006;2022-12-29T07:27:10;16.40;99.90
10662;DHT22;5379;51.034;7.006;2022-12-29T07:29:37;16.40;99.90
10662;DHT22;5379;51.034;7.006;2022-12-29T07:32:06;16.10;99.90
10662;DHT22;5379;51.034;7.006;2022-12-29T07:34:33;16.00;99.90
10662;DHT22;5379;51.034;7.006;2022-12-29T07:37:00;15.90;99.90
10662;DHT22;5379;51.034;7.006;2022-12-29T07:39:27;15.90;99.90
10662;DHT22;5379;51.034;7.006;2022-12-29T07:41:54;15.90;99.90
10662;DHT22;5379;51.034;7.006;2022-12-29T07:44:21;15.90;99.90
10662;DHT22;5379;51.034;7.006;2022-12-29T07:46:48;16.00;99.90
10662;DHT22;5379;51.034;7.006;2022-12-29T07:49:16;16.10;99.90
10662;DHT22;5379;51.034;7.006;2022-12-29T07:51:44;16.40;99.90
10662;DHT22;5379;51.034;7.006;2022-12-29T07:54:11;16.50;99.90
10662;DHT22;5379;51.034;7.006;2022-12-29T07:56:38;16.40;99.90
10662;DHT22;5379;51.034;7.006;2022-12-29T07:59:06;16.30;99.90
10662;DHT22;5379;51.034;7.006;2022-12-29T08:01:33;16.40;99.90
10662;DHT22;5379;51.034;7.006;2022-12-29T08:04:00;16.20;99.90
10662;DHT22;5379;51.034;7.006;2022-12-29T08:06:28;16.10;99.90
10662;DHT22;5379;51.034;7.006;2022-12-29T08:08:59;16.10;99.90
10662;DHT22;5379;51.034;7.006;2022-12-29T08:11:27;16.20;99.90
10662;DHT22;5379;51.034;7.006;2022-12-29T08:13:54;16.40;99.90
10662;DHT22;5379;51.034;7.006;2022-12-29T08:16:21;16.80;99.90
10662;DHT22;5379;51.034;7.006;2022-12-29T08:18:48;16.60;99.90
10662;DHT22;5379;51.034;7.006;2022-12-29T08:21:15;16.20;99.90
10662;DHT22;5379;51.034;7.006;2022-12-29T08:23:43;16.20;99.90
10662;DHT22;5379;51.034;7.006;2022-12-29T08:26:10;16.10;99.90
10662;DHT22;5379;51.034;7.006;2022-12-29T08:28:37;16.30;99.90
10662;DHT22;5379;51.034;7.006;2022-12-29T08:31:05;16.50;99.90
10662;DHT22;5379;51.034;7.006;2022-12-29T08:33:32;16.40;99.90
10662;DHT22;5379;51.034;7.006;2022-12-29T08:36:00;16.30;99.90
10662;DHT22;5379;51.034;7.006;2022-12-29T08:38:27;17.10;99.90
10662;DHT22;5379;51.034;7.006;2022-12-29T08:40:57;17.30;99.90
10662;DHT22;5379;51.034;7.006;2022-12-29T08:43:24;16.80;99.90
10662;DHT22;5379;51.034;7.006;2022-12-29T08:45:52;16.60;99.90
10662;DHT22;5379;51.034;7.006;2022-12-29T08:48:19;16.60;99.90
10662;DHT22;5379;51.034;7.006;2022-12-29T08:50:48;16.80;99.90
10662;DHT22;5379;51.034;7.006;2022-12-29T08:53:16;16.60;99.90
10662;DHT22;5379;51.034;7.006;2022-12-29T08:55:44;16.60;99.90
10662;DHT22;5379;51.034;7.006;2022-12-29T08:58:13;16.70;99.90
10662;DHT22;5379;51.034;7.006;2022-12-29T09:00:42;17.00;99.90
10662;DHT22;5379;51.034;7.006;2022-12-29T09:03:09;17.10;99.90
10662;DHT22;5379;51.034;7.006;2022-12-29T09:05:36;16.90;99.90
10662;DHT22;5379;51.034;7.006;2022-12-29T09:08:04;16.60;99.90
10662;DHT22;5379;51.034;7.006;2022-12-29T09:10:31;16.60;99.90
10662;DHT22;5379;51.034;7.006;2022-12-29T09:12:58;16.40;99.90
10662;DHT22;5379;51.034;7.006;2022-12-29T09:15:26;16.30;99.90
10662;DHT22;5379;51.034;7.006;2022-12-29T09:17:53;17.00;99.90
10662;DHT22;5379;51.034;7.006;2022-12-29T09:20:20;17.20;99.90
10662;DHT22;5379;51.034;7.006;2022-12-29T09:22:48;17.20;99.90
10662;DHT22;5379;51.034;7.006;2022-12-29T09:25:16;17.90;99.90
10662;DHT22;5379;51.034;7.006;2022-12-29T09:27:43;17.90;98.30
10662;DHT22;5379;51.034;7.006;2022-12-29T09:30:11;17.00;99.10
10662;DHT22;5379;51.034;7.006;2022-12-29T09:32:41;17.10;99.80
10662;DHT22;5379;51.034;7.006;2022-12-29T09:35:08;16.90;99.60
10662;DHT22;5379;51.034;7.006;2022-12-29T09:37:35;17.20;99.90
10662;DHT22;5379;51.034;7.006;2022-12-29T09:40:03;17.40;99.10
10662;DHT22;5379;51.034;7.006;2022-12-29T09:42:37;17.40;99.90
10662;DHT22;5379;51.034;7.006;2022-12-29T09:45:11;17.60;99.40
10662;DHT22;5379;51.034;7.006;2022-12-29T09:47:43;17.80;98.80
10662;DHT22;5379;51.034;7.006;2022-12-29T09:50:23;18.10;99.90
10662;DHT22;5379;51.034;7.006;2022-12-29T09:52:54;18.30;98.00
10662;DHT22;5379;51.034;7.006;2022-12-29T09:55:26;17.90;97.30
10662;DHT22;5379;51.034;7.006;2022-12-29T09:57:59;17.60;98.90
10662;DHT22;5379;51.034;7.006;2022-12-29T10:00:36;17.90;99.90
10662;DHT22;5379;51.034;7.006;2022-12-29T10:03:13;18.40;99.90
10662;DHT22;5379;51.034;7.006;2022-12-29T10:05:46;18.00;96.70
10662;DHT22;5379;51.034;7.006;2022-12-29T10:08:26;18.30;99.70
10662;DHT22;5379;51.034;7.006;2022-12-29T10:10:56;18.30;96.80
10662;DHT22;5379;51.034;7.006;2022-12-29T10:13:30;17.70;96.90
10662;DHT22;5379;51.034;7.006;2022-12-29T10:16:04;17.40;98.20
10662;DHT22;5379;51.034;7.006;2022-12-29T10:18:55;16.90;97.80
10662;DHT22;5379;51.034;7.006;2022-12-29T10:21:33;17.30;99.50
10662;DHT22;5379;51.034;7.006;2022-12-29T10:24:06;17.90;99.90
10662;DHT22;5379;51.034;7.006;2022-12-29T10:26:38;18.70;99.90
10662;DHT22;5379;51.034;7.006;2022-12-29T10:29:10;18.60;98.90
10662;DHT22;5379;51.034;7.006;2022-12-29T10:31:42;19.00;96.70
10662;DHT22;5379;51.034;7.006;2022-12-29T10:34:18;19.50;99.30
10662;DHT22;5379;51.034;7.006;2022-12-29T10:36:48;19.10;96.60
10662;DHT22;5379;51.034;7.006;2022-12-29T10:39:21;19.60;99.00
10662;DHT22;5379;51.034;7.006;2022-12-29T10:41:53;19.10;95.10
10662;DHT22;5379;51.034;7.006;2022-12-29T10:44:22;18.50;98.30
10662;DHT22;5379;51.034;7.006;2022-12-29T10:46:55;19.20;99.80
10662;DHT22;5379;51.034;7.006;2022-12-29T10:49:26;19.50;96.70
10662;DHT22;5379;51.034;7.006;2022-12-29T10:51:56;19.50;96.50
10662;DHT22;5379;51.034;7.006;2022-12-29T10:54:27;20.10;98.50
10662;DHT22;5379;51.034;7.006;2022-12-29T10:57:01;19.90;98.50
10662;DHT22;5379;51.034;7.006;2022-12-29T10:59:31;19.90;98.00
10662;DHT22;5379;51.034;7.006;2022-12-29T11:02:04;20.20;97.60
10662;DHT22;5379;51.034;7.006;2022-12-29T11:04:47;20.30;97.70
10662;DHT22;5379;51.034;7.006;2022-12-29T11:07:18;19.60;95.60
10662;DHT22;5379;51.034;7.006;2022-12-29T11:09:46;19.60;98.50
10662;DHT22;5379;51.034;7.006;2022-12-29T11:12:22;19.40;97.90
10662;DHT22;5379;51.034;7.006;2022-12-29T11:15:02;19.90;99.20
10662;DHT22;5379;51.034;7.006;2022-12-29T11:17:43;20.30;95.60
10662;DHT22;5379;51.034;7.006;2022-12-29T11:20:33;20.30;95.20
10662;DHT22;5379;51.034;7.006;2022-12-29T11:23:01;20.40;98.50
10662;DHT22;5379;51.034;7.006;2022-12-29T11:25:28;20.50;97.90
10662;DHT22;5379;51.034;7.006;2022-12-29T11:27:57;20.70;96.60
10662;DHT22;5379;51.034;7.006;2022-12-29T11:30:26;20.70;98.30
10662;DHT22;5379;51.034;7.006;2022-12-29T11:32:54;20.60;98.30
10662;DHT22;5379;51.034;7.006;2022-12-29T11:35:34;20.50;97.50
10662;DHT22;5379;51.034;7.006;2022-12-29T11:38:02;20.90;96.30
10662;DHT22;5379;51.034;7.006;2022-12-29T11:40:31;20.70;95.50
10662;DHT22;5379;51.034;7.006;2022-12-29T11:43:01;20.90;96.40
10662;DHT22;5379;51.034;7.006;2022-12-29T11:45:30;20.90;94.60
10662;DHT22;5379;51.034;7.006;2022-12-29T11:48:05;21.00;95.90
10662;DHT22;5379;51.034;7.006;2022-12-29T11:50:38;21.10;96.20
10662;DHT22;5379;51.034;7.006;2022-12-29T11:53:13;20.90;97.90
10662;DHT22;5379;51.034;7.006;2022-12-29T11:55:51;20.60;94.70
10662;DHT22;5379;51.034;7.006;2022-12-29T11:58:18;20.20;95.80
10662;DHT22;5379;51.034;7.006;2022-12-29T12:00:46;20.50;94.90
10662;DHT22;5379;51.034;7.006;2022-12-29T12:03:17;20.50;95.60
10662;DHT22;5379;51.034;7.006;2022-12-29T12:05:49;20.80;96.30
10662;DHT22;5379;51.034;7.006;2022-12-29T12:08:22;21.00;97.20
10662;DHT22;5379;51.034;7.006;2022-12-29T12:10:59;20.80;97.80
10662;DHT22;5379;51.034;7.006;2022-12-29T12:13:33;21.10;96.60
10662;DHT22;5379;51.034;7.006;2022-12-29T12:16:05;21.30;95.60
10662;DHT22;5379;51.034;7.006;2022-12-29T12:18:39;21.40;96.10
10662;DHT22;5379;51.034;7.006;2022-12-29T12:21:14;21.10;94.70
10662;DHT22;5379;51.034;7.006;2022-12-29T12:26:59;21.10;93.40
10662;DHT22;5379;51.034;7.006;2022-12-29T12:29:34;21.20;95.40
10662;DHT22;5379;51.034;7.006;2022-12-29T12:32:15;21.30;96.70
10662;DHT22;5379;51.034;7.006;2022-12-29T12:34:45;21.40;96.60
10662;DHT22;5379;51.034;7.006;2022-12-29T12:37:35;21.40;96.10
10662;DHT22;5379;51.034;7.006;2022-12-29T12:40:28;21.30;96.70
10662;DHT22;5379;51.034;7.006;2022-12-29T12:43:15;21.20;96.10
10662;DHT22;5379;51.034;7.006;2022-12-29T12:45:55;21.20;96.60
10662;DHT22;5379;51.034;7.006;2022-12-29T12:51:27;21.30;95.70
10662;DHT22;5379;51.034;7.006;2022-12-29T12:54:12;21.40;95.70
10662;DHT22;5379;51.034;7.006;2022-12-29T12:56:59;21.40;95.40
10662;DHT22;5379;51.034;7.006;2022-12-29T12:59:43;20.80;93.90
10662;DHT22;5379;51.034;7.006;2022-12-29T13:02:31;20.50;96.70
10662;DHT22;5379;51.034;7.006;2022-12-29T13:05:19;20.80;94.40
10662;DHT22;5379;51.034;7.006;2022-12-29T13:07:58;21.00;95.40
10662;DHT22;5379;51.034;7.006;2022-12-29T13:10:36;21.10;96.80
10662;DHT22;5379;51.034;7.006;2022-12-29T13:13:28;20.90;96.10
10662;DHT22;5379;51.034;7.006;2022-12-29T13:16:02;21.10;96.00
10662;DHT22;5379;51.034;7.006;2022-12-29T13:18:35;21.20;94.80
10662;DHT22;5379;51.034;7.006;2022-12-29T13:21:09;20.70;96.60
10662;DHT22;5379;51.034;7.006;2022-12-29T13:23:45;21.00;96.20
10662;DHT22;5379;51.034;7.006;2022-12-29T13:26:20;21.10;96.40
10662;DHT22;5379;51.034;7.006;2022-12-29T13:28:54;21.20;94.90
10662;DHT22;5379;51.034;7.006;2022-12-29T13:31:30;21.20;96.00
10662;DHT22;5379;51.034;7.006;2022-12-29T13:34:05;21.50;94.80
10662;DHT22;5379;51.034;7.006;2022-12-29T13:36:41;21.50;95.30
10662;DHT22;5379;51.034;7.006;2022-12-29T13:39:13;21.60;94.40
10662;DHT22;5379;51.034;7.006;2022-12-29T13:41:51;21.60;95.60
10662;DHT22;5379;51.034;7.006;2022-12-29T13:44:35;21.60;95.20
10662;DHT22;5379;51.034;7.006;2022-12-29T13:47:15;21.30;93.20
10662;DHT22;5379;51.034;7.006;2022-12-29T13:49:46;21.20;92.70
10662;DHT22;5379;51.034;7.006;2022-12-29T13:52:18;21.10;92.50
10662;DHT22;5379;51.034;7.006;2022-12-29T13:54:57;22.10;93.70
10662;DHT22;5379;51.034;7.006;2022-12-29T13:57:38;20.20;94.80
10662;DHT22;5379;51.034;7.006;2022-12-29T14:00:13;20.10;94.50
10662;DHT22;5379;51.034;7.006;2022-12-29T14:02:50;20.20;96.80
10662;DHT22;5379;51.034;7.006;2022-12-29T14:05:28;20.30;96.00
10662;DHT22;5379;51.034;7.006;2022-12-29T14:07:58;20.50;96.70
10662;DHT22;5379;51.034;7.006;2022-12-29T14:10:32;20.80;96.20
10662;DHT22;5379;51.034;7.006;2022-12-29T14:13:05;21.00;93.90
10662;DHT22;5379;51.034;7.006;2022-12-29T14:15:33;20.70;93.00
10662;DHT22;5379;51.034;7.006;2022-12-29T14:18:17;20.70;94.70
10662;DHT22;5379;51.034;7.006;2022-12-29T14:20:57;20.60;96.40
10662;DHT22;5379;51.034;7.006;2022-12-29T14:23:35;20.60;95.70
10662;DHT22;5379;51.034;7.006;2022-12-29T14:26:17;21.00;96.30
10662;DHT22;5379;51.034;7.006;2022-12-29T14:28:47;21.10;95.90
10662;DHT22;5379;51.034;7.006;2022-12-29T14:31:33;21.20;94.40
10662;DHT22;5379;51.034;7.006;2022-12-29T14:34:30;21.20;95.50
10662;DHT22;5379;51.034;7.006;2022-12-29T14:37:03;21.20;94.40
10662;DHT22;5379;51.034;7.006;2022-12-29T14:39:34;20.90;92.70
10662;DHT22;5379;51.034;7.006;2022-12-29T14:42:04;21.00;93.70
10662;DHT22;5379;51.034;7.006;2022-12-29T14:44:33;20.00;92.90
10662;DHT22;5379;51.034;7.006;2022-12-29T14:47:05;20.00;95.40
10662;DHT22;5379;51.034;7.006;2022-12-29T14:49:40;20.30;95.20
10662;DHT22;5379;51.034;7.006;2022-12-29T14:52:14;20.00;95.00
10662;DHT22;5379;51.034;7.006;2022-12-29T14:54:53;20.20;94.50
10662;DHT22;5379;51.034;7.006;2022-12-29T14:57:39;20.30;94.60
10662;DHT22;5379;51.034;7.006;2022-12-29T15:00:18;20.30;94.10
10662;DHT22;5379;51.034;7.006;2022-12-29T15:02:48;20.50;93.20
10662;DHT22;5379;51.034;7.006;2022-12-29T15:05:30;20.60;96.40
10662;DHT22;5379;51.034;7.006;2022-12-29T15:07:58;21.00;94.30
10662;DHT22;5379;51.034;7.006;2022-12-29T15:13:03;20.70;93.70
10662;DHT22;5379;51.034;7.006;2022-12-29T15:15:37;19.40;92.90
10662;DHT22;5379;51.034;7.006;2022-12-29T15:18:24;19.00;95.00
10662;DHT22;5379;51.034;7.006;2022-12-29T15:20:53;19.10;95.30
10662;DHT22;5379;51.034;7.006;2022-12-29T15:23:29;19.20;95.60
10662;DHT22;5379;51.034;7.006;2022-12-29T15:25:58;19.60;96.90
10662;DHT22;5379;51.034;7.006;2022-12-29T15:28:26;19.90;94.00
10662;DHT22;5379;51.034;7.006;2022-12-29T15:30:57;20.50;96.80
10662;DHT22;5379;51.034;7.006;2022-12-29T15:33:28;20.20;93.20
10662;DHT22;5379;51.034;7.006;2022-12-29T15:35:57;19.50;94.60
10662;DHT22;5379;51.034;7.006;2022-12-29T15:38:29;19.90;95.80
10662;DHT22;5379;51.034;7.006;2022-12-29T15:41:02;20.10;93.30
10662;DHT22;5379;51.034;7.006;2022-12-29T15:43:37;19.70;97.00
10662;DHT22;5379;51.034;7.006;2022-12-29T15:46:10;19.50;94.00
10662;DHT22;5379;51.034;7.006;2022-12-29T15:48:38;19.50;93.80
10662;DHT22;5379;51.034;7.006;2022-12-29T15:51:17;19.10;94.40
10662;DHT22;5379;51.034;7.006;2022-12-29T15:53:47;18.90;93.90
10662;DHT22;5379;51.034;7.006;2022-12-29T15:56:15;18.60;94.90
10662;DHT22;5379;51.034;7.006;2022-12-29T15:58:45;18.70;94.80
10662;DHT22;5379;51.034;7.006;2022-12-29T16:01:19;19.20;95.20
10662;DHT22;5379;51.034;7.006;2022-12-29T16:03:51;19.40;97.20
10662;DHT22;5379;51.034;7.006;2022-12-29T16:06:30;19.50;94.10
10662;DHT22;5379;51.034;7.006;2022-12-29T16:09:02;18.70;93.80
10662;DHT22;5379;51.034;7.006;2022-12-29T16:11:33;17.70;95.10
10662;DHT22;5379;51.034;7.006;2022-12-29T16:14:02;17.70;96.20
10662;DHT22;5379;51.034;7.006;2022-12-29T16:16:37;17.70;94.70
10662;DHT22;5379;51.034;7.006;2022-12-29T16:19:13;17.50;95.10
10662;DHT22;5379;51.034;7.006;2022-12-29T16:21:41;18.20;96.60
10662;DHT22;5379;51.034;7.006;2022-12-29T16:24:14;18.60;95.10
10662;DHT22;5379;51.034;7.006;2022-12-29T16:26:47;19.00;95.10
10662;DHT22;5379;51.034;7.006;2022-12-29T16:29:15;17.80;93.60
10662;DHT22;5379;51.034;7.006;2022-12-29T16:31:52;17.10;94.80
10662;DHT22;5379;51.034;7.006;2022-12-29T16:34:29;17.00;95.20
10662;DHT22;5379;51.034;7.006;2022-12-29T16:36:57;16.80;96.10
10662;DHT22;5379;51.034;7.006;2022-12-29T16:39:28;16.90;94.70
10662;DHT22;5379;51.034;7.006;2022-12-29T16:41:56;17.00;95.00
10662;DHT22;5379;51.034;7.006;2022-12-29T16:44:24;16.70;94.90
10662;DHT22;5379;51.034;7.006;2022-12-29T16:47:06;16.30;95.60
10662;DHT22;5379;51.034;7.006;2022-12-29T16:49:48;16.10;95.60
10662;DHT22;5379;51.034;7.006;2022-12-29T16:52:20;16.50;96.30
10662;DHT22;5379;51.034;7.006;2022-12-29T16:54:51;16.10;95.40
10662;DHT22;5379;51.034;7.006;2022-12-29T16:57:24;15.70;96.00
10662;DHT22;5379;51.034;7.006;2022-12-29T16:59:54;15.40;96.30
10662;DHT22;5379;51.034;7.006;2022-12-29T17:02:25;15.40;96.60
10662;DHT22;5379;51.034;7.006;2022-12-29T17:04:53;15.40;96.60
10662;DHT22;5379;51.034;7.006;2022-12-29T17:07:22;15.40;97.30
10662;DHT22;5379;51.034;7.006;2022-12-29T17:09:49;15.30;96.80
10662;DHT22;5379;51.034;7.006;2022-12-29T17:12:21;15.30;96.80
10662;DHT22;5379;51.034;7.006;2022-12-29T17:14:48;15.30;96.90
10662;DHT22;5379;51.034;7.006;2022-12-29T17:17:19;15.50;97.10
10662;DHT22;5379;51.034;7.006;2022-12-29T17:19:51;15.40;97.10
10662;DHT22;5379;51.034;7.006;2022-12-29T17:22:20;15.40;97.10
10662;DHT22;5379;51.034;7.006;2022-12-29T17:24:49;15.50;97.40
10662;DHT22;5379;51.034;7.006;2022-12-29T17:27:26;15.40;96.90
10662;DHT22;5379;51.034;7.006;2022-12-29T17:29:57;15.40;97.30
10662;DHT22;5379;51.034;7.006;2022-12-29T17:32:25;15.60;98.00
10662;DHT22;5379;51.034;7.006;2022-12-29T17:34:54;15.70;96.70
10662;DHT22;5379;51.034;7.006;2022-12-29T17:37:32;15.50;96.60
10662;DHT22;5379;51.034;7.006;2022-12-29T17:40:00;15.30;97.30
10662;DHT22;5379;51.034;7.006;2022-12-29T17:42:28;15.40;97.20
10662;DHT22;5379;51.034;7.006;2022-12-29T17:44:57;15.40;97.40
10662;DHT22;5379;51.034;7.006;2022-12-29T17:47:25;15.40;97.10
10662;DHT22;5379;51.034;7.006;2022-12-29T17:49:52;15.30;97.00
10662;DHT22;5379;51.034;7.006;2022-12-29T17:52:21;15.20;97.00
10662;DHT22;5379;51.034;7.006;2022-12-29T17:54:50;15.20;97.30
10662;DHT22;5379;51.034;7.006;2022-12-29T17:57:19;15.10;97.30
10662;DHT22;5379;51.034;7.006;2022-12-29T17:59:47;14.90;97.30
10662;DHT22;5379;51.034;7.006;2022-12-29T18:02:26;14.70;97.80
10662;DHT22;5379;51.034;7.006;2022-12-29T18:04:55;14.60;97.70
10662;DHT22;5379;51.034;7.006;2022-12-29T18:07:25;14.80;98.40
10662;DHT22;5379;51.034;7.006;2022-12-29T18:09:53;15.20;97.90
10662;DHT22;5379;51.034;7.006;2022-12-29T18:12:27;15.10;97.30
10662;DHT22;5379;51.034;7.006;2022-12-29T18:14:55;15.00;97.50
10662;DHT22;5379;51.034;7.006;2022-12-29T18:17:22;15.00;97.90
10662;DHT22;5379;51.034;7.006;2022-12-29T18:19:49;15.30;97.90
10662;DHT22;5379;51.034;7.006;2022-12-29T18:22:24;15.30;97.90
10662;DHT22;5379;51.034;7.006;2022-12-29T18:24:53;15.30;98.50
10662;DHT22;5379;51.034;7.006;2022-12-29T18:27:20;15.50;98.70
10662;DHT22;5379;51.034;7.006;2022-12-29T18:29:48;15.20;99.60
10662;DHT22;5379;51.034;7.006;2022-12-29T18:32:15;15.30;99.40
10662;DHT22;5379;51.034;7.006;2022-12-29T18:34:43;15.60;99.90
10662;DHT22;5379;51.034;7.006;2022-12-29T18:37:10;16.00;99.80
10662;DHT22;5379;51.034;7.006;2022-12-29T18:39:38;16.10;98.90
10662;DHT22;5379;51.034;7.006;2022-12-29T18:42:06;16.30;99.90
10662;DHT22;5379;51.034;7.006;2022-12-29T18:44:33;16.40;97.90
10662;DHT22;5379;51.034;7.006;2022-12-29T18:47:01;16.10;98.30
10662;DHT22;5379;51.034;7.006;2022-12-29T18:49:28;15.50;98.50
10662;DHT22;5379;51.034;7.006;2022-12-29T18:51:55;15.40;99.90
10662;DHT22;5379;51.034;7.006;2022-12-29T18:54:26;15.10;99.20
10662;DHT22;5379;51.034;7.006;2022-12-29T18:56:56;14.90;99.30
10662;DHT22;5379;51.034;7.006;2022-12-29T18:59:23;14.90;99.50
10662;DHT22;5379;51.034;7.006;2022-12-29T19:01:51;14.60;99.40
10662;DHT22;5379;51.034;7.006;2022-12-29T19:04:18;14.30;99.60
10662;DHT22;5379;51.034;7.006;2022-12-29T19:06:47;14.20;99.90
10662;DHT22;5379;51.034;7.006;2022-12-29T19:09:14;14.20;99.90
10662;DHT22;5379;51.034;7.006;2022-12-29T19:11:41;14.10;99.90
10662;DHT22;5379;51.034;7.006;2022-12-29T19:14:14;14.10;99.90
10662;DHT22;5379;51.034;7.006;2022-12-29T19:16:42;14.20;99.90
10662;DHT22;5379;51.034;7.006;2022-12-29T19:19:14;14.30;99.90
10662;DHT22;5379;51.034;7.006;2022-12-29T19:21:41;14.40;99.90
10662;DHT22;5379;51.034;7.006;2022-12-29T19:24:08;14.50;99.90
10662;DHT22;5379;51.034;7.006;2022-12-29T19:26:37;14.50;99.90
10662;DHT22;5379;51.034;7.006;2022-12-29T19:29:05;14.50;99.60
10662;DHT22;5379;51.034;7.006;2022-12-29T19:31:36;14.30;99.40
10662;DHT22;5379;51.034;7.006;2022-12-29T19:34:04;14.00;99.80
10662;DHT22;5379;51.034;7.006;2022-12-29T19:36:31;14.00;99.90
10662;DHT22;5379;51.034;7.006;2022-12-29T19:38:58;14.20;99.90
10662;DHT22;5379;51.034;7.006;2022-12-29T19:41:25;14.30;99.70
10662;DHT22;5379;51.034;7.006;2022-12-29T19:43:52;14.20;99.50
10662;DHT22;5379;51.034;7.006;2022-12-29T19:46:19;14.30;99.60
10662;DHT22;5379;51.034;7.006;2022-12-29T19:48:48;14.30;99.80
10662;DHT22;5379;51.034;7.006;2022-12-29T19:51:15;14.30;99.30
10662;DHT22;5379;51.034;7.006;2022-12-29T19:53:43;14.20;99.30
10662;DHT22;5379;51.034;7.006;2022-12-29T19:56:11;14.00;99.40
10662;DHT22;5379;51.034;7.006;2022-12-29T19:58:38;13.90;99.90
10662;DHT22;5379;51.034;7.006;2022-12-29T20:01:08;13.80;99.90
10662;DHT22;5379;51.034;7.006;2022-12-29T20:03:36;13.80;99.90
10662;DHT22;5379;51.034;7.006;2022-12-29T20:06:05;14.30;99.90
10662;DHT22;5379;51.034;7.006;2022-12-29T20:08:32;14.40;99.40
10662;DHT22;5379;51.034;7.006;2022-12-29T20:11:01;14.50;99.10
10662;DHT22;5379;51.034;7.006;2022-12-29T20:13:30;14.40;99.30
10662;DHT22;5379;51.034;7.006;2022-12-29T20:15:58;14.40;99.50
10662;DHT22;5379;51.034;7.006;2022-12-29T20:18:26;14.60;99.90
10662;DHT22;5379;51.034;7.006;2022-12-29T20:20:53;14.50;99.20